sensor_id;sensor_type;location;lat;lon;timestamp;temperature;humidity
23869;DHT22;12115;47.128;15.422;2023-07-28T00:00:47;16.50;99.90
23869;DHT22;12115;47.128;15.422;2023-07-28T00:03:14;16.50;99.90
23869;DHT22;12115;47.128;15.422;2023-07-28T00:05:41;16.50;99.90
23869;DHT22;12115;47.128;15.422;2023-07-28T00:08:07;16.40;99.90
23869;DHT22;12115;47.128;15.422;2023-07-28T00:10:40;16.30;99.90
23869;DHT22;12115;47.128;15.422;2023-07-28T00:13:08;16.30;99.90
23869;DHT22;12115;47.128;15.422;2023-07-28T00:15:35;16.30;99.90
23869;DHT22;12115;47.128;15.422;2023-07-28T00:18:02;16.30;99.90
23869;DHT22;12115;47.128;15.422;2023-07-28T00:20:29;16.40;99.90
23869;DHT22;12115;47.128;15.422;2023-07-28T00:22:56;16.40;99.90
23869;DHT22;12115;47.128;15.422;2023-07-28T00:25:24;16.40;99.90
23869;DHT22;12115;47.128;15.422;2023-07-28T00:27:51;16.40;99.90
23869;DHT22;12115;47.128;15.422;2023-07-28T00:30:18;16.40;99.90
23869;DHT22;12115;47.128;15.422;2023-07-28T00:32:46;16.40;99.90
23869;DHT22;12115;47.128;15.422;2023-07-28T00:35:13;16.40;99.90
23869;DHT22;12115;47.128;15.422;2023-07-28T00:37:40;16.40;99.90
23869;DHT22;12115;47.128;15.422;2023-07-28T00:40:07;16.30;99.90
23869;DHT22;12115;47.128;15.422;2023-07-28T00:42:35;16.20;99.90
23869;DHT22;12115;47.128;15.422;2023-07-28T00:45:03;16.20;99.90
23869;DHT22;12115;47.128;15.422;2023-07-28T00:47:30;16.20;99.90
23869;DHT22;12115;47.128;15.422;2023-07-28T00:49:57;16.20;99.90
23869;DHT22;12115;47.128;15.422;2023-07-28T00:52:25;16.30;99.90
23869;DHT22;12115;47.128;15.422;2023-07-28T00:54:52;16.30;99.90
23869;DHT22;12115;47.128;15.422;2023-07-28T00:57:19;16.30;99.90
23869;DHT22;12115;47.128;15.422;2023-07-28T00:59:46;16.30;99.90
23869;DHT22;12115;47.128;15.422;2023-07-28T01:02:17;16.10;99.90
23869;DHT22;12115;47.128;15.422;2023-07-28T01:04:44;16.20;99.90
23869;DHT22;12115;47.128;15.422;2023-07-28T01:10:18;16.20;99.90
23869;DHT22;12115;47.128;15.422;2023-07-28T01:12:45;16.20;99.90
23869;DHT22;12115;47.128;15.422;2023-07-28T01:15:12;16.20;99.90
23869;DHT22;12115;47.128;15.422;2023-07-28T01:17:42;16.20;99.90
23869;DHT22;12115;47.128;15.422;2023-07-28T01:20:10;16.20;99.90
23869;DHT22;12115;47.128;15.422;2023-07-28T01:25:43;16.10;99.90
23869;DHT22;12115;47.128;15.422;2023-07-28T01:28:16;16.20;99.90
23869;DHT22;12115;47.128;15.422;2023-07-28T01:30:44;16.20;99.90
23869;DHT22;12115;47.128;15.422;2023-07-28T01:33:11;16.20;99.90
23869;DHT22;12115;47.128;15.422;2023-07-28T01:35:38;16.10;99.90
23869;DHT22;12115;47.128;15.422;2023-07-28T01:38:06;16.10;99.90
23869;DHT22;12115;47.128;15.422;2023-07-28T01:40:33;16.10;99.90
23869;DHT22;12115;47.128;15.422;2023-07-28T01:42:59;16.20;99.90
23869;DHT22;12115;47.128;15.422;2023-07-28T01:45:26;16.10;99.90
23869;DHT22;12115;47.128;15.422;2023-07-28T01:47:54;16.10;99.90
23869;DHT22;12115;47.128;15.422;2023-07-28T01:50:21;16.10;99.90
23869;DHT22;12115;47.128;15.422;2023-07-28T01:52:48;16.10;99.90
23869;DHT22;12115;47.128;15.422;2023-07-28T01:55:15;16.10;99.90
23869;DHT22;12115;47.128;15.422;2023-07-28T01:57:54;16.10;99.90
23869;DHT22;12115;47.128;15.422;2023-07-28T02:00:22;16.00;99.90
23869;DHT22;12115;47.128;15.422;2023-07-28T02:02:49;16.00;99.90
23869;DHT22;12115;47.128;15.422;2023-07-28T02:05:17;16.00;99.90
23869;DHT22;12115;47.128;15.422;2023-07-28T02:07:44;15.90;99.90
23869;DHT22;12115;47.128;15.422;2023-07-28T02:10:11;15.90;99.90
23869;DHT22;12115;47.128;15.422;2023-07-28T02:12:38;15.80;99.90
23869;DHT22;12115;47.128;15.422;2023-07-28T02:15:06;15.80;99.90
23869;DHT22;12115;47.128;15.422;2023-07-28T02:17:34;15.80;99.90
23869;DHT22;12115;47.128;15.422;2023-07-28T02:20:02;15.70;99.90
23869;DHT22;12115;47.128;15.422;2023-07-28T02:22:30;15.80;99.90
23869;DHT22;12115;47.128;15.422;2023-07-28T02:24:57;15.70;99.90
23869;DHT22;12115;47.128;15.422;2023-07-28T02:27:28;15.70;99.90
23869;DHT22;12115;47.128;15.422;2023-07-28T02:29:55;15.70;99.90
23869;DHT22;12115;47.128;15.422;2023-07-28T02:32:22;15.50;99.90
23869;DHT22;12115;47.128;15.422;2023-07-28T02:34:49;15.50;99.90
23869;DHT22;12115;47.128;15.422;2023-07-28T02:37:16;15.60;99.90
23869;DHT22;12115;47.128;15.422;2023-07-28T02:39:43;15.50;99.90
23869;DHT22;12115;47.128;15.422;2023-07-28T02:42:11;15.60;99.90
23869;DHT22;12115;47.128;15.422;2023-07-28T02:44:39;15.50;99.90
23869;DHT22;12115;47.128;15.422;2023-07-28T02:47:06;15.50;99.90
23869;DHT22;12115;47.128;15.422;2023-07-28T02:49:34;15.50;99.90
23869;DHT22;12115;47.128;15.422;2023-07-28T02:52:01;15.50;99.90
23869;DHT22;12115;47.128;15.422;2023-07-28T02:54:30;15.40;99.90
23869;DHT22;12115;47.128;15.422;2023-07-28T02:56:57;15.40;99.90
23869;DHT22;12115;47.128;15.422;2023-07-28T02:59:24;15.40;99.90
23869;DHT22;12115;47.128;15.422;2023-07-28T03:01:51;15.30;99.90
23869;DHT22;12115;47.128;15.422;2023-07-28T03:04:19;15.20;99.90
23869;DHT22;12115;47.128;15.422;2023-07-28T03:07:09;15.10;99.90
23869;DHT22;12115;47.128;15.422;2023-07-28T03:09:38;15.10;99.90
23869;DHT22;12115;47.128;15.422;2023-07-28T03:12:05;15.10;99.90
23869;DHT22;12115;47.128;15.422;2023-07-28T03:14:33;15.10;99.90
23869;DHT22;12115;47.128;15.422;2023-07-28T03:17:00;15.10;99.90
23869;DHT22;12115;47.128;15.422;2023-07-28T03:19:27;15.10;99.90
23869;DHT22;12115;47.128;15.422;2023-07-28T03:21:54;15.10;99.90
23869;DHT22;12115;47.128;15.422;2023-07-28T03:24:21;15.10;99.90
23869;DHT22;12115;47.128;15.422;2023-07-28T03:26:48;15.00;99.90
23869;DHT22;12115;47.128;15.422;2023-07-28T03:29:15;14.90;99.90
23869;DHT22;12115;47.128;15.422;2023-07-28T03:31:42;14.90;99.90
23869;DHT22;12115;47.128;15.422;2023-07-28T03:34:41;14.90;99.90
23869;DHT22;12115;47.128;15.422;2023-07-28T03:37:11;14.90;99.90
23869;DHT22;12115;47.128;15.422;2023-07-28T03:39:38;14.80;99.90
23869;DHT22;12115;47.128;15.422;2023-07-28T03:42:06;14.70;99.90
23869;DHT22;12115;47.128;15.422;2023-07-28T03:44:34;14.70;99.90
23869;DHT22;12115;47.128;15.422;2023-07-28T03:47:01;14.70;99.90
23869;DHT22;12115;47.128;15.422;2023-07-28T03:49:28;14.60;99.90
23869;DHT22;12115;47.128;15.422;2023-07-28T03:51:55;14.60;99.90
23869;DHT22;12115;47.128;15.422;2023-07-28T03:54:22;14.60;99.90
23869;DHT22;12115;47.128;15.422;2023-07-28T03:56:49;14.40;99.90
23869;DHT22;12115;47.128;15.422;2023-07-28T03:59:19;14.40;99.90
23869;DHT22;12115;47.128;15.422;2023-07-28T04:01:46;14.40;99.90
23869;DHT22;12115;47.128;15.422;2023-07-28T04:04:14;14.40;99.90
23869;DHT22;12115;47.128;15.422;2023-07-28T04:06:47;14.40;99.90
23869;DHT22;12115;47.128;15.422;2023-07-28T04:09:17;14.40;99.90
23869;DHT22;12115;47.128;15.422;2023-07-28T04:11:44;14.40;99.90
23869;DHT22;12115;47.128;15.422;2023-07-28T04:14:12;14.40;99.90
23869;DHT22;12115;47.128;15.422;2023-07-28T04:16:39;14.30;99.90
23869;DHT22;12115;47.128;15.422;2023-07-28T04:19:06;14.30;99.90
23869;DHT22;12115;47.128;15.422;2023-07-28T04:21:33;14.30;99.90
23869;DHT22;12115;47.128;15.422;2023-07-28T04:24:00;14.40;99.90
23869;DHT22;12115;47.128;15.422;2023-07-28T04:26:28;14.30;99.90
23869;DHT22;12115;47.128;15.422;2023-07-28T04:28:59;14.30;99.90
23869;DHT22;12115;47.128;15.422;2023-07-28T04:31:27;14.30;99.90
23869;DHT22;12115;47.128;15.422;2023-07-28T04:34:02;14.30;99.90
23869;DHT22;12115;47.128;15.422;2023-07-28T04:36:50;14.30;99.90
23869;DHT22;12115;47.128;15.422;2023-07-28T04:39:21;14.20;99.90
23869;DHT22;12115;47.128;15.422;2023-07-28T04:41:48;14.10;99.90
23869;DHT22;12115;47.128;15.422;2023-07-28T04:44:15;14.10;99.90
23869;DHT22;12115;47.128;15.422;2023-07-28T04:46:43;14.20;99.90
23869;DHT22;12115;47.128;15.422;2023-07-28T04:49:14;14.20;99.90
23869;DHT22;12115;47.128;15.422;2023-07-28T04:52:19;14.20;99.90
23869;DHT22;12115;47.128;15.422;2023-07-28T04:55:02;14.20;99.90
23869;DHT22;12115;47.128;15.422;2023-07-28T04:57:30;14.20;99.90
23869;DHT22;12115;47.128;15.422;2023-07-28T04:59:57;14.20;99.90
23869;DHT22;12115;47.128;15.422;2023-07-28T05:02:24;14.30;99.90
23869;DHT22;12115;47.128;15.422;2023-07-28T05:04:51;14.30;99.90
23869;DHT22;12115;47.128;15.422;2023-07-28T05:07:19;14.30;99.90
23869;DHT22;12115;47.128;15.422;2023-07-28T05:09:47;14.40;99.90
23869;DHT22;12115;47.128;15.422;2023-07-28T05:12:14;14.40;99.90
23869;DHT22;12115;47.128;15.422;2023-07-28T05:14:44;14.40;99.90
23869;DHT22;12115;47.128;15.422;2023-07-28T05:17:13;14.50;99.90
23869;DHT22;12115;47.128;15.422;2023-07-28T05:19:52;14.50;99.90
23869;DHT22;12115;47.128;15.422;2023-07-28T05:22:42;14.60;99.90
23869;DHT22;12115;47.128;15.422;2023-07-28T05:25:09;14.60;99.90
23869;DHT22;12115;47.128;15.422;2023-07-28T05:27:40;14.60;99.90
23869;DHT22;12115;47.128;15.422;2023-07-28T05:30:07;14.70;99.90
23869;DHT22;12115;47.128;15.422;2023-07-28T05:32:34;14.80;99.90
23869;DHT22;12115;47.128;15.422;2023-07-28T05:35:22;14.90;99.90
23869;DHT22;12115;47.128;15.422;2023-07-28T05:37:49;15.00;99.90
23869;DHT22;12115;47.128;15.422;2023-07-28T05:40:16;15.10;99.90
23869;DHT22;12115;47.128;15.422;2023-07-28T05:42:43;15.10;99.90
23869;DHT22;12115;47.128;15.422;2023-07-28T05:45:15;15.20;99.90
23869;DHT22;12115;47.128;15.422;2023-07-28T05:47:42;15.20;99.90
23869;DHT22;12115;47.128;15.422;2023-07-28T05:50:09;15.30;99.90
23869;DHT22;12115;47.128;15.422;2023-07-28T05:52:36;15.40;99.90
23869;DHT22;12115;47.128;15.422;2023-07-28T05:55:03;15.50;99.90
23869;DHT22;12115;47.128;15.422;2023-07-28T05:57:31;15.60;99.90
23869;DHT22;12115;47.128;15.422;2023-07-28T06:00:01;15.70;99.90
23869;DHT22;12115;47.128;15.422;2023-07-28T06:02:39;15.70;99.90
23869;DHT22;12115;47.128;15.422;2023-07-28T06:05:08;15.80;99.90
23869;DHT22;12115;47.128;15.422;2023-07-28T06:07:35;15.80;99.90
23869;DHT22;12115;47.128;15.422;2023-07-28T06:10:03;16.00;99.90
23869;DHT22;12115;47.128;15.422;2023-07-28T06:12:30;16.10;99.90
23869;DHT22;12115;47.128;15.422;2023-07-28T06:14:57;16.20;99.90
23869;DHT22;12115;47.128;15.422;2023-07-28T06:17:24;16.20;99.90
23869;DHT22;12115;47.128;15.422;2023-07-28T06:19:54;16.30;99.90
23869;DHT22;12115;47.128;15.422;2023-07-28T06:22:21;16.40;99.90
23869;DHT22;12115;47.128;15.422;2023-07-28T06:24:48;16.50;99.90
23869;DHT22;12115;47.128;15.422;2023-07-28T06:27:16;16.60;99.90
23869;DHT22;12115;47.128;15.422;2023-07-28T06:29:43;16.90;99.90
23869;DHT22;12115;47.128;15.422;2023-07-28T06:32:10;16.90;99.90
23869;DHT22;12115;47.128;15.422;2023-07-28T06:34:37;17.10;99.90
23869;DHT22;12115;47.128;15.422;2023-07-28T06:37:04;17.30;99.90
23869;DHT22;12115;47.128;15.422;2023-07-28T06:39:31;17.40;99.90
23869;DHT22;12115;47.128;15.422;2023-07-28T06:41:59;17.50;99.90
23869;DHT22;12115;47.128;15.422;2023-07-28T06:44:27;17.70;99.90
23869;DHT22;12115;47.128;15.422;2023-07-28T06:46:54;17.70;99.90
23869;DHT22;12115;47.128;15.422;2023-07-28T06:49:21;17.80;99.90
23869;DHT22;12115;47.128;15.422;2023-07-28T06:51:48;18.00;99.90
23869;DHT22;12115;47.128;15.422;2023-07-28T06:54:17;18.20;99.90
23869;DHT22;12115;47.128;15.422;2023-07-28T06:56:44;18.30;99.90
23869;DHT22;12115;47.128;15.422;2023-07-28T06:59:11;18.30;99.90
23869;DHT22;12115;47.128;15.422;2023-07-28T07:01:44;18.40;99.90
23869;DHT22;12115;47.128;15.422;2023-07-28T07:04:11;18.50;99.90
23869;DHT22;12115;47.128;15.422;2023-07-28T07:06:38;18.60;99.90
23869;DHT22;12115;47.128;15.422;2023-07-28T07:09:06;18.70;99.90
23869;DHT22;12115;47.128;15.422;2023-07-28T07:11:33;18.80;99.90
23869;DHT22;12115;47.128;15.422;2023-07-28T07:14:01;18.90;99.90
23869;DHT22;12115;47.128;15.422;2023-07-28T07:16:28;19.00;99.90
23869;DHT22;12115;47.128;15.422;2023-07-28T07:18:55;19.10;99.90
23869;DHT22;12115;47.128;15.422;2023-07-28T07:21:22;19.20;99.90
23869;DHT22;12115;47.128;15.422;2023-07-28T07:23:49;19.30;99.90
23869;DHT22;12115;47.128;15.422;2023-07-28T07:26:25;19.40;99.90
23869;DHT22;12115;47.128;15.422;2023-07-28T07:28:53;19.50;99.90
23869;DHT22;12115;47.128;15.422;2023-07-28T07:31:20;19.60;99.90
23869;DHT22;12115;47.128;15.422;2023-07-28T07:33:47;19.70;99.90
23869;DHT22;12115;47.128;15.422;2023-07-28T07:36:19;19.70;99.90
23869;DHT22;12115;47.128;15.422;2023-07-28T07:38:46;19.80;99.90
23869;DHT22;12115;47.128;15.422;2023-07-28T07:41:14;19.90;99.90
23869;DHT22;12115;47.128;15.422;2023-07-28T07:43:48;19.90;99.90
23869;DHT22;12115;47.128;15.422;2023-07-28T07:46:16;19.90;99.90
23869;DHT22;12115;47.128;15.422;2023-07-28T07:48:43;20.00;99.90
23869;DHT22;12115;47.128;15.422;2023-07-28T07:51:10;20.10;99.90
23869;DHT22;12115;47.128;15.422;2023-07-28T07:53:37;20.10;99.90
23869;DHT22;12115;47.128;15.422;2023-07-28T07:56:06;20.20;99.90
23869;DHT22;12115;47.128;15.422;2023-07-28T07:58:34;20.30;99.90
23869;DHT22;12115;47.128;15.422;2023-07-28T08:01:02;20.50;99.90
23869;DHT22;12115;47.128;15.422;2023-07-28T08:03:29;20.60;99.90
23869;DHT22;12115;47.128;15.422;2023-07-28T08:05:58;20.60;99.90
23869;DHT22;12115;47.128;15.422;2023-07-28T08:08:25;20.70;99.90
23869;DHT22;12115;47.128;15.422;2023-07-28T08:10:54;20.70;99.90
23869;DHT22;12115;47.128;15.422;2023-07-28T08:13:21;20.80;99.90
23869;DHT22;12115;47.128;15.422;2023-07-28T08:15:48;20.90;99.90
23869;DHT22;12115;47.128;15.422;2023-07-28T08:18:15;21.00;99.90
23869;DHT22;12115;47.128;15.422;2023-07-28T08:20:43;21.10;99.90
23869;DHT22;12115;47.128;15.422;2023-07-28T08:23:11;21.30;99.90
23869;DHT22;12115;47.128;15.422;2023-07-28T08:25:38;21.30;99.90
23869;DHT22;12115;47.128;15.422;2023-07-28T08:28:05;21.40;99.90
23869;DHT22;12115;47.128;15.422;2023-07-28T08:30:33;21.50;99.90
23869;DHT22;12115;47.128;15.422;2023-07-28T08:33:00;21.60;99.90
23869;DHT22;12115;47.128;15.422;2023-07-28T08:35:27;21.60;99.90
23869;DHT22;12115;47.128;15.422;2023-07-28T08:37:54;21.60;99.90
23869;DHT22;12115;47.128;15.422;2023-07-28T08:40:21;21.70;99.90
23869;DHT22;12115;47.128;15.422;2023-07-28T08:42:51;21.80;99.90
23869;DHT22;12115;47.128;15.422;2023-07-28T08:45:19;21.90;99.90
23869;DHT22;12115;47.128;15.422;2023-07-28T08:47:46;22.00;99.90
23869;DHT22;12115;47.128;15.422;2023-07-28T08:50:13;22.20;99.90
23869;DHT22;12115;47.128;15.422;2023-07-28T08:52:40;22.20;99.90
23869;DHT22;12115;47.128;15.422;2023-07-28T08:55:08;22.20;99.90
23869;DHT22;12115;47.128;15.422;2023-07-28T08:57:36;22.20;99.90
23869;DHT22;12115;47.128;15.422;2023-07-28T09:00:10;22.30;99.90
23869;DHT22;12115;47.128;15.422;2023-07-28T09:02:41;22.30;99.90
23869;DHT22;12115;47.128;15.422;2023-07-28T09:05:20;22.30;99.90
23869;DHT22;12115;47.128;15.422;2023-07-28T09:07:47;22.40;99.90
23869;DHT22;12115;47.128;15.422;2023-07-28T09:10:14;22.50;99.90
23869;DHT22;12115;47.128;15.422;2023-07-28T09:12:46;22.70;99.90
23869;DHT22;12115;47.128;15.422;2023-07-28T09:15:14;22.70;99.90
23869;DHT22;12115;47.128;15.422;2023-07-28T09:17:44;22.90;99.90
23869;DHT22;12115;47.128;15.422;2023-07-28T09:20:15;23.10;99.90
23869;DHT22;12115;47.128;15.422;2023-07-28T09:22:43;23.10;99.90
23869;DHT22;12115;47.128;15.422;2023-07-28T09:25:15;23.20;99.90
23869;DHT22;12115;47.128;15.422;2023-07-28T09:27:52;23.00;99.90
23869;DHT22;12115;47.128;15.422;2023-07-28T09:30:20;23.00;99.90
23869;DHT22;12115;47.128;15.422;2023-07-28T09:32:50;23.00;99.90
23869;DHT22;12115;47.128;15.422;2023-07-28T09:35:17;23.10;99.90
23869;DHT22;12115;47.128;15.422;2023-07-28T09:37:46;23.20;99.90
23869;DHT22;12115;47.128;15.422;2023-07-28T09:40:19;23.40;99.90
23869;DHT22;12115;47.128;15.422;2023-07-28T09:42:48;23.40;99.90
23869;DHT22;12115;47.128;15.422;2023-07-28T09:45:22;23.50;99.90
23869;DHT22;12115;47.128;15.422;2023-07-28T09:48:05;23.60;99.90
23869;DHT22;12115;47.128;15.422;2023-07-28T09:50:36;23.60;99.90
23869;DHT22;12115;47.128;15.422;2023-07-28T09:53:06;23.70;99.90
23869;DHT22;12115;47.128;15.422;2023-07-28T09:55:35;23.90;99.90
23869;DHT22;12115;47.128;15.422;2023-07-28T09:58:04;24.10;99.90
23869;DHT22;12115;47.128;15.422;2023-07-28T10:00:33;24.10;99.90
23869;DHT22;12115;47.128;15.422;2023-07-28T10:03:02;24.10;99.90
23869;DHT22;12115;47.128;15.422;2023-07-28T10:05:30;24.30;99.90
23869;DHT22;12115;47.128;15.422;2023-07-28T10:07:57;24.60;99.90
23869;DHT22;12115;47.128;15.422;2023-07-28T10:10:24;24.60;99.90
23869;DHT22;12115;47.128;15.422;2023-07-28T10:12:54;24.70;99.90
23869;DHT22;12115;47.128;15.422;2023-07-28T10:15:31;24.60;99.90
23869;DHT22;12115;47.128;15.422;2023-07-28T10:17:59;24.60;99.90
23869;DHT22;12115;47.128;15.422;2023-07-28T10:20:38;24.70;99.90
23869;DHT22;12115;47.128;15.422;2023-07-28T10:25:44;24.90;99.90
23869;DHT22;12115;47.128;15.422;2023-07-28T10:30:59;25.00;99.90
23869;DHT22;12115;47.128;15.422;2023-07-28T10:35:58;25.10;99.90
23869;DHT22;12115;47.128;15.422;2023-07-28T10:38:34;25.10;99.90
23869;DHT22;12115;47.128;15.422;2023-07-28T10:41:11;25.10;99.90
23869;DHT22;12115;47.128;15.422;2023-07-28T10:43:40;25.20;99.90
23869;DHT22;12115;47.128;15.422;2023-07-28T10:46:09;25.20;99.90
23869;DHT22;12115;47.128;15.422;2023-07-28T10:48:42;25.30;99.90
23869;DHT22;12115;47.128;15.422;2023-07-28T10:51:10;25.40;99.90
23869;DHT22;12115;47.128;15.422;2023-07-28T10:53:38;25.60;99.90
23869;DHT22;12115;47.128;15.422;2023-07-28T10:56:05;25.70;99.90
23869;DHT22;12115;47.128;15.422;2023-07-28T10:58:37;25.70;99.90
23869;DHT22;12115;47.128;15.422;2023-07-28T11:01:04;25.90;99.90
23869;DHT22;12115;47.128;15.422;2023-07-28T11:03:31;26.00;99.90
23869;DHT22;12115;47.128;15.422;2023-07-28T11:06:03;26.00;99.90
23869;DHT22;12115;47.128;15.422;2023-07-28T11:08:32;26.20;99.30
23869;DHT22;12115;47.128;15.422;2023-07-28T11:10:59;26.20;99.20
23869;DHT22;12115;47.128;15.422;2023-07-28T11:13:26;26.30;99.90
23869;DHT22;12115;47.128;15.422;2023-07-28T11:16:07;26.20;98.20
23869;DHT22;12115;47.128;15.422;2023-07-28T11:18:35;26.20;99.70
23869;DHT22;12115;47.128;15.422;2023-07-28T11:21:02;26.40;99.10
23869;DHT22;12115;47.128;15.422;2023-07-28T11:23:30;26.50;97.70
23869;DHT22;12115;47.128;15.422;2023-07-28T11:25:56;26.50;96.70
23869;DHT22;12115;47.128;15.422;2023-07-28T11:28:23;26.50;97.90
23869;DHT22;12115;47.128;15.422;2023-07-28T11:30:51;26.60;96.80
23869;DHT22;12115;47.128;15.422;2023-07-28T11:33:19;26.50;96.40
23869;DHT22;12115;47.128;15.422;2023-07-28T11:35:46;26.60;94.90
23869;DHT22;12115;47.128;15.422;2023-07-28T11:38:14;26.70;95.50
23869;DHT22;12115;47.128;15.422;2023-07-28T11:40:42;26.70;95.80
23869;DHT22;12115;47.128;15.422;2023-07-28T11:43:10;26.80;95.90
23869;DHT22;12115;47.128;15.422;2023-07-28T11:45:37;26.90;94.70
23869;DHT22;12115;47.128;15.422;2023-07-28T11:48:05;26.90;96.10
23869;DHT22;12115;47.128;15.422;2023-07-28T11:50:40;26.90;95.80
23869;DHT22;12115;47.128;15.422;2023-07-28T11:53:09;27.00;96.10
23869;DHT22;12115;47.128;15.422;2023-07-28T11:55:37;27.10;96.70
23869;DHT22;12115;47.128;15.422;2023-07-28T11:58:07;27.30;96.40
23869;DHT22;12115;47.128;15.422;2023-07-28T12:00:35;27.20;96.40
23869;DHT22;12115;47.128;15.422;2023-07-28T12:03:10;27.20;94.90
23869;DHT22;12115;47.128;15.422;2023-07-28T12:05:41;27.30;94.80
23869;DHT22;12115;47.128;15.422;2023-07-28T12:08:12;27.30;95.80
23869;DHT22;12115;47.128;15.422;2023-07-28T12:10:54;27.30;94.60
23869;DHT22;12115;47.128;15.422;2023-07-28T12:13:24;27.40;95.20
23869;DHT22;12115;47.128;15.422;2023-07-28T12:15:56;27.50;95.30
23869;DHT22;12115;47.128;15.422;2023-07-28T12:18:30;27.50;94.70
23869;DHT22;12115;47.128;15.422;2023-07-28T12:21:00;27.40;93.80
23869;DHT22;12115;47.128;15.422;2023-07-28T12:23:27;27.50;94.80
23869;DHT22;12115;47.128;15.422;2023-07-28T12:25:57;27.50;93.40
23869;DHT22;12115;47.128;15.422;2023-07-28T12:28:25;27.50;93.70
23869;DHT22;12115;47.128;15.422;2023-07-28T12:30:53;27.60;93.50
23869;DHT22;12115;47.128;15.422;2023-07-28T12:33:23;27.60;93.20
23869;DHT22;12115;47.128;15.422;2023-07-28T12:36:04;27.60;92.80
23869;DHT22;12115;47.128;15.422;2023-07-28T12:38:35;27.70;92.90
23869;DHT22;12115;47.128;15.422;2023-07-28T12:41:05;27.70;92.30
23869;DHT22;12115;47.128;15.422;2023-07-28T12:43:36;27.70;93.80
23869;DHT22;12115;47.128;15.422;2023-07-28T12:46:06;27.90;92.60
23869;DHT22;12115;47.128;15.422;2023-07-28T12:48:36;27.90;92.60
23869;DHT22;12115;47.128;15.422;2023-07-28T12:51:14;28.00;93.30
23869;DHT22;12115;47.128;15.422;2023-07-28T12:53:56;28.10;93.50
23869;DHT22;12115;47.128;15.422;2023-07-28T12:56:25;28.10;94.20
23869;DHT22;12115;47.128;15.422;2023-07-28T12:58:55;28.00;92.60
23869;DHT22;12115;47.128;15.422;2023-07-28T13:01:25;28.00;92.70
23869;DHT22;12115;47.128;15.422;2023-07-28T13:03:52;28.10;92.70
23869;DHT22;12115;47.128;15.422;2023-07-28T13:06:20;28.10;92.30
23869;DHT22;12115;47.128;15.422;2023-07-28T13:08:47;28.00;92.90
23869;DHT22;12115;47.128;15.422;2023-07-28T13:11:17;28.00;92.50
23869;DHT22;12115;47.128;15.422;2023-07-28T13:13:44;28.10;93.30
23869;DHT22;12115;47.128;15.422;2023-07-28T13:16:12;28.10;93.10
23869;DHT22;12115;47.128;15.422;2023-07-28T13:18:39;28.20;92.20
23869;DHT22;12115;47.128;15.422;2023-07-28T13:21:06;27.90;91.60
23869;DHT22;12115;47.128;15.422;2023-07-28T13:23:34;27.80;92.70
23869;DHT22;12115;47.128;15.422;2023-07-28T13:26:01;27.80;92.50
23869;DHT22;12115;47.128;15.422;2023-07-28T13:28:31;27.80;92.30
23869;DHT22;12115;47.128;15.422;2023-07-28T13:30:58;28.00;93.60
23869;DHT22;12115;47.128;15.422;2023-07-28T13:33:25;28.10;92.80
23869;DHT22;12115;47.128;15.422;2023-07-28T13:35:52;28.00;93.00
23869;DHT22;12115;47.128;15.422;2023-07-28T13:38:19;28.00;92.80
23869;DHT22;12115;47.128;15.422;2023-07-28T13:40:46;28.00;93.30
23869;DHT22;12115;47.128;15.422;2023-07-28T13:43:13;27.90;92.90
23869;DHT22;12115;47.128;15.422;2023-07-28T13:45:43;27.90;93.00
23869;DHT22;12115;47.128;15.422;2023-07-28T13:48:10;27.90;92.90
23869;DHT22;12115;47.128;15.422;2023-07-28T13:50:40;27.90;91.90
23869;DHT22;12115;47.128;15.422;2023-07-28T13:53:08;27.90;92.30
23869;DHT22;12115;47.128;15.422;2023-07-28T13:55:38;28.00;93.30
23869;DHT22;12115;47.128;15.422;2023-07-28T13:58:07;28.10;92.70
23869;DHT22;12115;47.128;15.422;2023-07-28T14:00:34;28.10;94.00
23869;DHT22;12115;47.128;15.422;2023-07-28T14:03:04;28.20;93.40
23869;DHT22;12115;47.128;15.422;2023-07-28T14:05:31;28.20;92.20
23869;DHT22;12115;47.128;15.422;2023-07-28T14:08:01;28.20;92.90
23869;DHT22;12115;47.128;15.422;2023-07-28T14:10:28;28.30;93.60
23869;DHT22;12115;47.128;15.422;2023-07-28T14:12:55;28.30;92.50
23869;DHT22;12115;47.128;15.422;2023-07-28T14:15:22;28.30;92.10
23869;DHT22;12115;47.128;15.422;2023-07-28T14:17:49;28.30;93.40
23869;DHT22;12115;47.128;15.422;2023-07-28T14:20:16;28.30;93.00
23869;DHT22;12115;47.128;15.422;2023-07-28T14:22:43;28.30;92.50
23869;DHT22;12115;47.128;15.422;2023-07-28T14:25:10;28.40;92.50
23869;DHT22;12115;47.128;15.422;2023-07-28T14:27:37;28.30;92.70
23869;DHT22;12115;47.128;15.422;2023-07-28T14:30:12;28.30;93.00
23869;DHT22;12115;47.128;15.422;2023-07-28T14:32:45;28.40;93.60
23869;DHT22;12115;47.128;15.422;2023-07-28T14:35:17;28.40;92.30
23869;DHT22;12115;47.128;15.422;2023-07-28T14:37:45;28.40;92.20
23869;DHT22;12115;47.128;15.422;2023-07-28T14:40:13;28.40;92.80
23869;DHT22;12115;47.128;15.422;2023-07-28T14:42:40;28.40;91.20
23869;DHT22;12115;47.128;15.422;2023-07-28T14:45:08;28.40;92.00
23869;DHT22;12115;47.128;15.422;2023-07-28T14:47:35;28.40;91.10
23869;DHT22;12115;47.128;15.422;2023-07-28T14:50:02;28.40;91.90
23869;DHT22;12115;47.128;15.422;2023-07-28T14:52:29;28.40;91.70
23869;DHT22;12115;47.128;15.422;2023-07-28T14:54:58;28.40;91.80
23869;DHT22;12115;47.128;15.422;2023-07-28T14:57:27;28.40;91.80
23869;DHT22;12115;47.128;15.422;2023-07-28T15:00:01;28.40;92.00
23869;DHT22;12115;47.128;15.422;2023-07-28T15:02:29;28.40;92.00
23869;DHT22;12115;47.128;15.422;2023-07-28T15:04:56;28.30;91.90
23869;DHT22;12115;47.128;15.422;2023-07-28T15:07:23;28.40;92.60
23869;DHT22;12115;47.128;15.422;2023-07-28T15:09:50;28.50;93.00
23869;DHT22;12115;47.128;15.422;2023-07-28T15:12:17;28.50;92.00
23869;DHT22;12115;47.128;15.422;2023-07-28T15:14:44;28.50;92.40
23869;DHT22;12115;47.128;15.422;2023-07-28T15:17:11;28.40;90.40
23869;DHT22;12115;47.128;15.422;2023-07-28T15:19:38;28.50;91.50
23869;DHT22;12115;47.128;15.422;2023-07-28T15:22:05;28.40;90.50
23869;DHT22;12115;47.128;15.422;2023-07-28T15:24:32;28.40;90.60
23869;DHT22;12115;47.128;15.422;2023-07-28T15:26:58;28.40;90.70
23869;DHT22;12115;47.128;15.422;2023-07-28T15:29:25;28.40;91.10
23869;DHT22;12115;47.128;15.422;2023-07-28T15:31:52;28.40;91.20
23869;DHT22;12115;47.128;15.422;2023-07-28T15:34:20;28.40;90.60
23869;DHT22;12115;47.128;15.422;2023-07-28T15:36:48;28.40;90.90
23869;DHT22;12115;47.128;15.422;2023-07-28T15:39:15;28.40;90.50